Terminal Aerodrome Forecast
Issued by NWS

Home | Current Version | Previous Version | Text Only | Print | Product List | Glossary On
Versions: 1 2 3 4 5 6 7 8 9 10 11 12
479
FTUS44 KJAN 221727
TAFGTR
TAF
KGTR 221727Z 2218/2318 14011KT 5SM SHRA VCTS OVC009CB
     FM222200 15007KT P6SM OVC015
     FM230100 18005KT P6SM OVC040
     FM230400 19005KT P6SM OVC015
     FM230800 22005KT P6SM OVC007
     FM231600 22007KT P6SM OVC015=

USA.gov is the U.S. government's official web portal to all federal, state and local government web resources and services.